createdAt,value
2018-04-26T00:02:45.542Z,101428.75
2018-04-26T00:05:17.213Z,101428.41
2018-04-26T00:07:49.818Z,101424.56
2018-04-26T00:10:21.925Z,101428.09
2018-04-26T00:15:13.215Z,101425.23
2018-04-26T00:19:32.491Z,101424.80
2018-04-26T00:22:04.214Z,101423.15
2018-04-26T00:25:47.515Z,101432.17
2018-04-26T00:28:19.223Z,101429.08
2018-04-26T00:30:50.577Z,101431.26
2018-04-26T00:33:22.299Z,101432.59
2018-04-26T00:35:53.745Z,101436.61
2018-04-26T00:40:49.509Z,101439.05
2018-04-26T00:43:21.229Z,101433.34
2018-04-26T00:45:52.825Z,101436.12
2018-04-26T00:48:24.849Z,101440.14
2018-04-26T00:50:56.836Z,101435.28
2018-04-26T00:53:31.131Z,101429.84
2018-04-26T00:56:03.150Z,101429.84
2018-04-26T00:58:39.391Z,101430.27
2018-04-26T01:01:11.309Z,101431.08
2018-04-26T01:03:41.772Z,101431.19
2018-04-26T01:06:13.498Z,101435.09
2018-04-26T01:08:45.262Z,101431.19
2018-04-26T01:11:17.351Z,101427.24
2018-04-26T01:13:51.175Z,101429.00
2018-04-26T01:16:23.687Z,101429.50
2018-04-26T01:18:56.364Z,101432.59
2018-04-26T01:22:28.373Z,101428.16
2018-04-26T01:25:00.252Z,101428.34
2018-04-26T01:27:30.932Z,101428.83
2018-04-26T01:30:03.161Z,101431.51
2018-04-26T01:32:34.841Z,101438.20
2018-04-26T01:35:06.876Z,101441.90
2018-04-26T01:37:49.983Z,101438.70
2018-04-26T01:40:22.963Z,101437.78
2018-04-26T01:42:55.884Z,101438.80
2018-04-26T01:45:27.863Z,101439.61
2018-04-26T01:48:01.253Z,101441.90
2018-04-26T01:50:32.906Z,101444.90
2018-04-26T01:53:04.965Z,101441.38
2018-04-26T01:55:37.158Z,101436.94
2018-04-26T01:58:08.888Z,101443.23
2018-04-26T02:00:41.983Z,101446.31
2018-04-26T02:03:13.998Z,101456.63
2018-04-26T02:05:45.878Z,101450.50
2018-04-26T02:08:19.461Z,101448.74
2018-04-26T02:10:51.263Z,101450.92
2018-04-26T02:13:22.885Z,101453.18
2018-04-26T02:18:26.916Z,101454.27
2018-04-26T02:21:00.937Z,101458.05
2018-04-26T02:25:52.550Z,101462.30
2018-04-26T02:28:24.253Z,101474.28
2018-04-26T02:30:55.886Z,101477.39
2018-04-26T02:33:27.858Z,101470.69
2018-04-26T02:36:01.278Z,101479.15
2018-04-26T02:38:33.389Z,101482.32
2018-04-26T02:41:05.235Z,101484.16
2018-04-26T02:43:37.655Z,101480.56
2018-04-26T02:46:11.177Z,101480.06
2018-04-26T02:49:36.358Z,101490.74
2018-04-26T02:52:09.461Z,101491.59
2018-04-26T02:54:42.174Z,101495.42
2018-04-26T02:59:24.670Z,101498.88
2018-04-26T03:01:57.838Z,101501.45
2018-04-26T03:04:30.849Z,101506.81
2018-04-26T03:07:04.073Z,101504.91
2018-04-26T03:09:37.474Z,101505.75
2018-04-26T03:12:11.761Z,101503.99
2018-04-26T03:17:14.565Z,101509.66
2018-04-26T03:19:47.212Z,101511.67
2018-04-26T03:22:20.001Z,101520.73
2018-04-26T03:24:53.424Z,101518.13
2018-04-26T03:28:05.280Z,101520.30
2018-04-26T03:30:38.657Z,101522.56
2018-04-26T03:33:12.478Z,101532.00
2018-04-26T03:35:45.475Z,101533.02
2018-04-26T03:38:18.206Z,101529.14
2018-04-26T03:40:51.176Z,101531.05
2018-04-26T03:43:24.281Z,101532.39
2018-04-26T03:45:55.259Z,101533.80
2018-04-26T03:48:26.472Z,101539.16
2018-04-26T03:50:59.896Z,101543.59
2018-04-26T03:53:32.634Z,101543.62
2018-04-26T03:57:51.382Z,101549.52
2018-04-26T04:00:34.554Z,101549.41
2018-04-26T04:03:18.372Z,101555.86
2018-04-26T04:10:33.777Z,101576.09
2018-04-26T04:13:08.614Z,101576.10
2018-04-26T04:15:42.302Z,101588.48
2018-04-26T04:18:15.196Z,101585.75
2018-04-26T04:20:46.322Z,101586.20
2018-04-26T04:23:19.100Z,101593.31
2018-04-26T04:25:52.561Z,101594.97
2018-04-26T04:28:26.033Z,101597.70
2018-04-26T04:30:59.144Z,101592.47
2018-04-26T04:33:30.261Z,101595.93
2018-04-26T04:36:03.301Z,101594.33
2018-04-26T04:38:36.422Z,101585.33
2018-04-26T04:41:10.116Z,101596.41
2018-04-26T04:43:45.204Z,101595.70
2018-04-26T04:46:17.883Z,101598.36
2018-04-26T04:48:51.464Z,101598.42
2018-04-26T04:51:24.733Z,101605.44
2018-04-26T04:53:57.603Z,101602.77
2018-04-26T04:56:31.124Z,101607.05
2018-04-26T04:59:02.334Z,101612.44
2018-04-26T05:01:35.364Z,101616.78
2018-04-26T05:04:08.400Z,101615.28
2018-04-26T05:06:41.353Z,101619.19
2018-04-26T05:09:15.053Z,101617.16
2018-04-26T05:11:48.167Z,101612.13
2018-04-26T05:14:20.317Z,101613.23
2018-04-26T05:16:53.329Z,101615.20
2018-04-26T05:19:26.717Z,101611.52
2018-04-26T05:22:00.129Z,101619.38
2018-04-26T05:24:32.744Z,101611.08
2018-04-26T05:27:06.127Z,101618.98
2018-04-26T05:29:37.220Z,101615.27
2018-04-26T05:32:10.895Z,101615.27
2018-04-26T05:34:43.872Z,101610.77
2018-04-26T05:37:16.920Z,101613.00
2018-04-26T05:39:49.805Z,101614.66
2018-04-26T05:42:23.446Z,101612.16
2018-04-26T05:44:56.259Z,101616.00
2018-04-26T05:47:29.167Z,101613.97
2018-04-26T05:50:00.940Z,101610.94
2018-04-26T05:52:34.067Z,101616.19
2018-04-26T05:55:07.666Z,101614.20
2018-04-26T05:57:41.131Z,101608.46
2018-04-26T06:00:27.234Z,101612.87
2018-04-26T06:02:59.127Z,101607.30
2018-04-26T06:05:32.382Z,101604.67
2018-04-26T06:08:05.365Z,101601.28
2018-04-26T06:10:38.758Z,101603.23
2018-04-26T06:13:12.054Z,101606.97
2018-04-26T06:15:45.360Z,101602.00
2018-04-26T06:18:18.563Z,101601.06
2018-04-26T06:20:52.161Z,101606.44
2018-04-26T06:23:25.557Z,101608.02
2018-04-26T06:25:59.169Z,101603.13
2018-04-26T06:28:31.442Z,101611.33
2018-04-26T06:31:04.693Z,101614.08
2018-04-26T06:33:37.758Z,101613.17
2018-04-26T06:36:11.355Z,101613.65
2018-04-26T06:38:44.986Z,101612.47
2018-04-26T06:41:17.937Z,101609.47
2018-04-26T06:43:50.789Z,101604.69
2018-04-26T06:46:24.490Z,101603.05
2018-04-26T06:48:58.497Z,101608.42
2018-04-26T06:51:31.348Z,101608.39
2018-04-26T06:54:04.696Z,101615.78
2018-04-26T06:57:13.075Z,101616.48
2018-04-26T06:59:46.174Z,101615.15
2018-04-26T07:02:19.098Z,101609.95
2018-04-26T07:04:51.749Z,101610.30
2018-04-26T07:07:25.305Z,101607.31
2018-04-26T07:09:58.617Z,101609.31
2018-04-26T07:12:31.804Z,101610.70
2018-04-26T07:15:05.090Z,101604.16
2018-04-26T07:17:37.789Z,101606.78
2018-04-26T07:20:11.268Z,101608.30
2018-04-26T07:22:44.362Z,101606.59
2018-04-26T07:25:17.533Z,101605.12
2018-04-26T07:27:51.402Z,101616.05
2018-04-26T07:30:25.410Z,101609.55
2018-04-26T07:32:58.557Z,101612.29
2018-04-26T07:35:31.378Z,101609.58
2018-04-26T07:38:04.096Z,101609.63
2018-04-26T07:40:37.366Z,101605.92
2018-04-26T07:43:10.189Z,101606.98
2018-04-26T07:45:42.792Z,101615.23
2018-04-26T07:48:15.688Z,101614.30
2018-04-26T07:50:49.148Z,101610.20
2018-04-26T07:53:22.498Z,101611.50
2018-04-26T07:55:55.186Z,101605.09
2018-04-26T07:58:26.928Z,101602.38
2018-04-26T08:01:00.294Z,101601.81
2018-04-26T08:03:33.193Z,101596.41
2018-04-26T08:06:06.264Z,101594.62
2018-04-26T08:09:58.933Z,101602.08
2018-04-26T08:12:32.321Z,101599.89
2018-04-26T08:15:05.264Z,101597.62
2018-04-26T08:17:38.211Z,101596.91
2018-04-26T08:20:10.390Z,101598.19
2018-04-26T08:22:43.001Z,101597.20
2018-04-26T08:25:15.516Z,101601.98
2018-04-26T08:27:48.742Z,101601.93
2018-04-26T08:30:21.745Z,101593.78
2018-04-26T08:32:54.960Z,101597.34
2018-04-26T08:35:28.386Z,101593.64
2018-04-26T08:38:02.545Z,101588.19
2018-04-26T08:40:35.225Z,101590.41
2018-04-26T08:43:08.520Z,101592.23
2018-04-26T08:45:41.166Z,101598.20
2018-04-26T08:48:14.513Z,101596.84
2018-04-26T08:50:48.403Z,101589.15
2018-04-26T08:53:21.226Z,101588.58
2018-04-26T08:55:54.533Z,101574.70
2018-04-26T08:58:27.501Z,101573.08
2018-04-26T09:01:01.065Z,101571.47
2018-04-26T09:03:34.371Z,101564.12
2018-04-26T09:06:07.289Z,101570.09
2018-04-26T09:08:40.648Z,101563.13
2018-04-26T09:11:14.670Z,101570.42
2018-04-26T09:13:48.055Z,101564.59
2018-04-26T09:16:20.900Z,101554.16
2018-04-26T09:18:54.647Z,101555.59
2018-04-26T09:21:28.598Z,101561.98
2018-04-26T09:23:59.980Z,101562.52
2018-04-26T09:26:33.016Z,101561.75
2018-04-26T09:29:06.054Z,101556.30
2018-04-26T09:31:38.897Z,101558.19
2018-04-26T09:34:12.779Z,101552.35
2018-04-26T09:36:48.870Z,101549.22
2018-04-26T09:39:22.365Z,101548.80
2018-04-26T09:41:55.501Z,101548.98
2018-04-26T09:44:29.649Z,101546.20
2018-04-26T09:47:02.446Z,101544.20
2018-04-26T09:49:35.580Z,101546.86
2018-04-26T09:52:09.364Z,101543.22
2018-04-26T09:54:42.405Z,101534.03
2018-04-26T09:57:15.337Z,101533.78
2018-04-26T09:59:48.030Z,101535.06
2018-04-26T10:02:20.641Z,101529.76
2018-04-26T10:05:00.386Z,101531.55
2018-04-26T10:07:33.226Z,101536.25
2018-04-26T10:10:06.551Z,101530.09
2018-04-26T10:12:39.179Z,101536.58
2018-04-26T10:15:11.952Z,101529.42
2018-04-26T10:17:45.075Z,101535.40
2018-04-26T10:20:18.660Z,101530.09
2018-04-26T10:22:51.561Z,101534.11
2018-04-26T10:25:24.603Z,101537.86
2018-04-26T10:27:57.433Z,101544.45
2018-04-26T10:30:30.451Z,101536.49
2018-04-26T10:33:03.373Z,101541.94
2018-04-26T10:35:36.422Z,101540.52
2018-04-26T10:38:08.884Z,101537.86
2018-04-26T10:40:42.149Z,101540.97
2018-04-26T10:43:14.448Z,101539.84
2018-04-26T10:45:47.381Z,101540.55
2018-04-26T10:48:20.509Z,101540.52
2018-04-26T10:50:53.489Z,101538.42
2018-04-26T10:53:27.378Z,101536.18
2018-04-26T10:55:59.934Z,101534.33
2018-04-26T10:58:32.941Z,101536.66
2018-04-26T11:01:06.424Z,101537.55
2018-04-26T11:03:40.300Z,101535.66
2018-04-26T11:06:13.299Z,101533.98
2018-04-26T11:08:46.627Z,101531.52
2018-04-26T11:11:20.079Z,101532.61
2018-04-26T11:13:53.021Z,101528.73
2018-04-26T11:16:25.520Z,101526.59
2018-04-26T11:18:58.558Z,101529.90
2018-04-26T11:21:32.756Z,101525.63
2018-04-26T11:24:06.414Z,101534.83
2018-04-26T11:26:40.053Z,101534.91
2018-04-26T11:29:12.997Z,101531.27
2018-04-26T11:31:45.921Z,101531.57
2018-04-26T11:34:19.202Z,101524.98
2018-04-26T11:36:51.528Z,101524.65
2018-04-26T11:39:24.414Z,101521.28
2018-04-26T11:41:57.518Z,101524.06
2018-04-26T11:44:30.070Z,101525.02
2018-04-26T11:47:02.931Z,101531.27
2018-04-26T11:49:36.475Z,101528.06
2018-04-26T11:52:09.868Z,101530.61
2018-04-26T11:54:43.674Z,101531.56
2018-04-26T11:57:17.061Z,101527.14
2018-04-26T11:59:50.510Z,101526.16
2018-04-26T12:02:24.038Z,101517.11
2018-04-26T12:04:56.059Z,101516.73
2018-04-26T12:07:29.834Z,101507.59
2018-04-26T12:10:03.415Z,101515.69
2018-04-26T12:12:36.975Z,101511.20
2018-04-26T12:15:10.065Z,101504.52
2018-04-26T12:17:43.001Z,101501.20
2018-04-26T12:20:16.385Z,101510.25
2018-04-26T12:22:49.290Z,101509.20
2018-04-26T12:25:22.477Z,101509.61
2018-04-26T12:27:56.025Z,101511.91
2018-04-26T12:30:29.016Z,101510.71
2018-04-26T12:33:02.442Z,101507.87
2018-04-26T12:35:35.368Z,101509.20
2018-04-26T12:38:08.218Z,101509.13
2018-04-26T12:40:41.573Z,101511.36
2018-04-26T12:43:15.416Z,101510.83
2018-04-26T12:45:48.627Z,101511.56
2018-04-26T12:48:22.432Z,101505.61
2018-04-26T12:50:55.716Z,101513.31
2018-04-26T12:53:29.286Z,101517.71
2018-04-26T12:56:02.775Z,101515.91
2018-04-26T12:58:35.402Z,101516.86
2018-04-26T13:01:08.552Z,101512.39
2018-04-26T13:03:41.962Z,101514.27
2018-04-26T13:06:15.398Z,101519.28
2018-04-26T13:08:48.593Z,101517.99
2018-04-26T13:11:21.217Z,101518.06
2018-04-26T13:13:53.516Z,101522.34
2018-04-26T13:16:26.890Z,101522.23
2018-04-26T13:19:00.537Z,101522.30
2018-04-26T13:21:33.509Z,101522.66
2018-04-26T13:24:06.070Z,101525.05
2018-04-26T13:26:38.398Z,101522.71
2018-04-26T13:29:11.436Z,101520.91
2018-04-26T13:31:44.575Z,101525.73
2018-04-26T13:34:17.401Z,101529.58
2018-04-26T13:36:50.585Z,101527.78
2018-04-26T13:39:23.386Z,101536.38
2018-04-26T13:41:56.212Z,101530.06
2018-04-26T13:44:28.385Z,101532.46
2018-04-26T13:47:01.710Z,101537.55
2018-04-26T13:49:34.633Z,101536.61
2018-04-26T13:52:07.137Z,101540.28
2018-04-26T13:54:40.525Z,101542.16
2018-04-26T13:57:14.194Z,101544.03
2018-04-26T13:59:47.634Z,101542.45
2018-04-26T14:02:20.874Z,101545.46
2018-04-26T14:04:53.643Z,101544.40
2018-04-26T14:07:26.373Z,101546.69
2018-04-26T14:09:59.585Z,101550.86
2018-04-26T14:12:32.513Z,101547.14
2018-04-26T14:15:05.813Z,101552.64
2018-04-26T14:17:39.070Z,101556.68
2018-04-26T14:20:12.060Z,101558.83
2018-04-26T14:22:44.913Z,101563.16
2018-04-26T14:25:18.011Z,101566.53
2018-04-26T14:27:51.381Z,101567.91
2018-04-26T14:30:25.995Z,101561.16
2018-04-26T14:33:00.440Z,101558.41
2018-04-26T14:35:34.469Z,101563.63
2018-04-26T14:38:08.037Z,101566.17
2018-04-26T14:40:41.007Z,101569.00
2018-04-26T14:45:02.507Z,101576.64
2018-04-26T14:47:35.537Z,101572.08
2018-04-26T14:50:08.018Z,101574.09
2018-04-26T14:52:41.852Z,101575.67
2018-04-26T14:55:15.309Z,101575.72
2018-04-26T14:57:48.403Z,101577.77
2018-04-26T15:00:21.506Z,101570.55
2018-04-26T15:02:54.675Z,101567.80
2018-04-26T15:05:27.709Z,101571.34
2018-04-26T15:08:01.527Z,101576.34
2018-04-26T15:10:35.510Z,101576.34
2018-04-26T15:13:08.640Z,101577.19
2018-04-26T15:15:41.935Z,101572.75
2018-04-26T15:18:15.380Z,101581.77
2018-04-26T15:20:49.305Z,101577.41
2018-04-26T15:23:21.530Z,101583.97
2018-04-26T15:25:54.421Z,101586.44
2018-04-26T15:28:27.596Z,101578.19
2018-04-26T15:31:00.812Z,101586.98
2018-04-26T15:33:33.598Z,101595.19
2018-04-26T15:36:07.463Z,101598.39
2018-04-26T15:38:40.541Z,101591.94
2018-04-26T15:41:13.514Z,101590.36
2018-04-26T15:43:46.393Z,101584.41
2018-04-26T15:46:18.873Z,101582.75
2018-04-26T15:48:51.998Z,101586.47
2018-04-26T15:51:25.825Z,101589.89
2018-04-26T15:54:09.420Z,101580.44
2018-04-26T15:56:59.008Z,101580.44
2018-04-26T15:59:42.652Z,101590.89
2018-04-26T16:02:31.785Z,101589.34
2018-04-26T16:05:19.923Z,101586.87
2018-04-26T16:08:08.252Z,101591.64
2018-04-26T16:10:56.039Z,101591.64
2018-04-26T16:13:43.525Z,101591.21
2018-04-26T16:16:32.438Z,101589.36
2018-04-26T16:19:20.411Z,101587.43
2018-04-26T16:22:08.237Z,101587.50
2018-04-26T16:24:56.426Z,101587.62
2018-04-26T16:27:44.224Z,101580.27
2018-04-26T16:30:26.751Z,101583.36
2018-04-26T16:33:09.482Z,101579.20
2018-04-26T16:35:52.809Z,101578.55
2018-04-26T16:38:36.904Z,101579.86
2018-04-26T16:41:08.838Z,101577.88
2018-04-26T16:43:40.929Z,101576.47
2018-04-26T16:46:13.536Z,101581.49
2018-04-26T16:48:46.120Z,101580.80
2018-04-26T16:51:20.237Z,101575.87
2018-04-26T16:53:53.251Z,101577.44
2018-04-26T16:56:25.813Z,101582.14
2018-04-26T16:58:57.438Z,101583.65
2018-04-26T17:01:29.094Z,101589.42
2018-04-26T17:04:01.039Z,101593.03
2018-04-26T17:06:33.023Z,101589.67
2018-04-26T17:09:06.473Z,101583.76
2018-04-26T17:11:40.056Z,101579.89
2018-04-26T17:14:13.066Z,101575.37
2018-04-26T17:16:46.930Z,101576.97
2018-04-26T17:19:20.994Z,101566.52
2018-04-26T17:21:56.510Z,101575.55
2018-04-26T17:24:32.493Z,101581.14
2018-04-26T17:27:06.399Z,101574.95
2018-04-26T17:29:40.402Z,101574.66
2018-04-26T17:32:13.756Z,101573.53
2018-04-26T17:34:47.445Z,101569.66
2018-04-26T17:37:20.380Z,101568.25
2018-04-26T17:39:53.767Z,101570.77
2018-04-26T17:42:27.722Z,101572.15
2018-04-26T17:45:01.578Z,101563.39
2018-04-26T17:47:34.454Z,101571.27
2018-04-26T17:50:08.218Z,101576.34
2018-04-26T17:52:42.134Z,101572.17
2018-04-26T17:55:15.741Z,101576.67
2018-04-26T17:57:49.276Z,101572.98
2018-04-26T18:00:23.187Z,101579.86
2018-04-26T18:02:58.218Z,101579.23
2018-04-26T18:05:31.585Z,101578.14
2018-04-26T18:08:05.576Z,101567.56
2018-04-26T18:10:38.800Z,101571.87
2018-04-26T18:13:12.409Z,101569.81
2018-04-26T18:15:46.051Z,101574.38
2018-04-26T18:18:20.164Z,101577.31
2018-04-26T18:20:53.099Z,101565.65
2018-04-26T18:23:26.457Z,101569.02
2018-04-26T18:26:00.925Z,101567.67
2018-04-26T18:28:33.945Z,101557.98
2018-04-26T18:31:06.988Z,101555.22
2018-04-26T18:33:39.916Z,101556.91
2018-04-26T18:36:13.620Z,101558.58
2018-04-26T18:38:47.934Z,101560.42
2018-04-26T18:41:21.387Z,101558.08
2018-04-26T18:43:55.408Z,101561.47
2018-04-26T18:46:28.822Z,101551.41
2018-04-26T18:49:00.846Z,101561.42
2018-04-26T18:51:34.382Z,101552.80
2018-04-26T18:54:08.030Z,101549.73
2018-04-26T18:56:41.440Z,101552.65
2018-04-26T18:59:15.035Z,101547.78
2018-04-26T19:01:50.373Z,101550.54
2018-04-26T19:04:23.509Z,101546.06
2018-04-26T19:06:56.904Z,101538.37
2018-04-26T19:09:30.433Z,101537.48
2018-04-26T19:12:03.631Z,101537.44
2018-04-26T19:14:37.301Z,101536.53
2018-04-26T19:17:10.411Z,101531.50
2018-04-26T19:19:44.024Z,101529.13
2018-04-26T19:22:17.928Z,101523.70
2018-04-26T19:24:51.386Z,101527.21
2018-04-26T19:27:24.425Z,101529.83
2018-04-26T19:29:58.832Z,101531.02
2018-04-26T19:32:32.234Z,101522.41
2018-04-26T19:35:05.200Z,101519.02
2018-04-26T19:37:37.587Z,101523.08
2018-04-26T19:40:10.435Z,101513.16
2018-04-26T19:42:44.773Z,101511.67
2018-04-26T19:45:18.466Z,101504.23
2018-04-26T19:47:51.505Z,101495.77
2018-04-26T19:50:24.923Z,101497.22
2018-04-26T19:52:58.416Z,101494.01
2018-04-26T19:55:32.434Z,101495.09
2018-04-26T19:58:05.387Z,101477.80
2018-04-26T20:00:39.387Z,101482.48
2018-04-26T20:03:13.036Z,101476.13
2018-04-26T20:05:46.811Z,101471.13
2018-04-26T20:08:20.212Z,101468.58
2018-04-26T20:10:53.306Z,101476.12
2018-04-26T20:13:27.242Z,101470.53
2018-04-26T20:17:31.520Z,101465.02
2018-04-26T20:20:04.397Z,101465.06
2018-04-26T20:22:37.519Z,101457.12
2018-04-26T20:25:10.295Z,101456.17
2018-04-26T20:27:43.660Z,101453.95
2018-04-26T20:30:16.826Z,101448.30
2018-04-26T20:32:48.232Z,101448.09
2018-04-26T20:35:20.502Z,101446.11
2018-04-26T20:37:53.388Z,101445.23
2018-04-26T20:40:26.488Z,101439.81
2018-04-26T20:42:59.578Z,101442.78
2018-04-26T20:45:32.912Z,101442.59
2018-04-26T20:48:06.749Z,101435.52
2018-04-26T20:50:40.370Z,101430.48
2018-04-26T20:53:13.574Z,101424.62
2018-04-26T20:55:46.438Z,101422.77
2018-04-26T20:58:19.547Z,101423.25
2018-04-26T21:00:52.731Z,101416.11
2018-04-26T21:03:25.697Z,101418.55
2018-04-26T21:05:58.376Z,101413.89
2018-04-26T21:08:31.110Z,101424.55
2018-04-26T21:11:04.503Z,101416.77
2018-04-26T21:13:37.694Z,101411.70
2018-04-26T21:16:10.496Z,101412.06
2018-04-26T21:18:43.018Z,101416.28
2018-04-26T21:21:15.933Z,101416.55
2018-04-26T21:23:49.295Z,101414.27
2018-04-26T21:26:22.380Z,101413.18
2018-04-26T21:28:55.606Z,101414.87
2018-04-26T21:31:28.391Z,101405.96
2018-04-26T21:34:00.921Z,101403.88
2018-04-26T21:36:33.542Z,101402.64
2018-04-26T21:39:06.974Z,101396.77
2018-04-26T21:41:40.208Z,101392.72
2018-04-26T21:44:13.507Z,101392.98
2018-04-26T21:46:46.666Z,101392.92
2018-04-26T21:49:17.419Z,101383.57
2018-04-26T21:51:55.799Z,101384.42
2018-04-26T21:54:33.081Z,101375.26
2018-04-26T21:57:10.760Z,101368.75
2018-04-26T21:59:49.853Z,101375.97
2018-04-26T22:02:23.830Z,101371.92
2018-04-26T22:04:58.200Z,101366.83
2018-04-26T22:07:31.308Z,101362.98
2018-04-26T22:10:04.398Z,101356.13
2018-04-26T22:12:37.314Z,101358.48
2018-04-26T22:15:10.387Z,101357.91
2018-04-26T22:17:43.085Z,101351.55
2018-04-26T22:20:16.097Z,101345.13
2018-04-26T22:22:48.420Z,101344.94
2018-04-26T22:25:21.610Z,101342.95
2018-04-26T22:27:54.453Z,101342.13
2018-04-26T22:30:27.071Z,101338.80
2018-04-26T22:33:00.628Z,101332.52
2018-04-26T22:35:33.762Z,101338.42
2018-04-26T22:38:06.433Z,101329.83
2018-04-26T22:40:39.928Z,101323.03
2018-04-26T22:43:13.396Z,101337.84
2018-04-26T22:45:46.414Z,101334.14
2018-04-26T22:48:19.325Z,101328.75
2018-04-26T22:50:52.418Z,101333.95
2018-04-26T22:53:25.061Z,101330.25
2018-04-26T22:55:58.407Z,101333.91
2018-04-26T22:58:31.674Z,101328.41
2018-04-26T23:01:03.779Z,101326.95
2018-04-26T23:03:37.050Z,101318.99
2018-04-26T23:06:10.833Z,101322.42
2018-04-26T23:08:44.421Z,101320.59
2018-04-26T23:11:16.814Z,101314.38
2018-04-26T23:13:49.565Z,101314.25
2018-04-26T23:16:21.417Z,101313.55
2018-04-26T23:18:52.970Z,101313.09
2018-04-26T23:23:03.968Z,101312.76
2018-04-26T23:25:35.979Z,101304.61
2018-04-26T23:28:07.549Z,101301.09
2018-04-26T23:30:39.886Z,101303.41
2018-04-26T23:33:11.778Z,101297.77
2018-04-26T23:35:43.591Z,101293.14
2018-04-26T23:38:15.118Z,101297.66
2018-04-26T23:40:46.864Z,101310.31
2018-04-26T23:43:17.533Z,101304.37
2018-04-26T23:45:49.361Z,101305.87
2018-04-26T23:48:21.705Z,101312.00
2018-04-26T23:50:53.430Z,101304.03
2018-04-26T23:53:25.055Z,101309.73
2018-04-26T23:55:57.093Z,101304.45
2018-04-26T23:58:28.836Z,101304.60
